Time;durP1;ratioP1;P1;durP2;ratioP2;P2;SDS_P1;SDS_P2;PMS_P1;PMS_P2;Temp;Humidity;BMP_temperature;BMP_pressure;BME280_temperature;BME280_humidity;BME280_pressure;Samples;Min_cycle;Max_cycle;Signal;HPM_P1;HPM_P2
2023/01/24 00:00:41;;;;;;;19.33;10.38;;;3.40;99.90;;;;;;5007073;28;20069;-67
2023/01/24 00:03:12;;;;;;;21.15;11.25;;;3.50;99.90;;;;;;5007837;28;20093;-66
2023/01/24 00:05:43;;;;;;;20.83;10.30;;;3.50;99.90;;;;;;5007297;28;20050;-67
2023/01/24 00:08:14;;;;;;;21.48;10.85;;;3.50;99.90;;;;;;5022616;28;20136;-67
2023/01/24 00:10:41;;;;;;;19.15;11.60;;;3.50;99.90;;;;;;5008912;28;20481;-67
2023/01/24 00:13:10;;;;;;;18.42;10.25;;;3.50;99.90;;;;;;5010123;28;20064;-67
2023/01/24 00:15:36;;;;;;;20.88;11.82;;;3.50;99.90;;;;;;5008536;28;20041;-66
2023/01/24 00:18:03;;;;;;;18.30;9.52;;;3.50;99.90;;;;;;5041186;28;20046;-68
2023/01/24 00:20:30;;;;;;;24.85;11.50;;;3.60;99.90;;;;;;5009681;28;20070;-67
2023/01/24 00:22:57;;;;;;;18.02;10.85;;;3.60;99.90;;;;;;5010023;28;20045;-67
2023/01/24 00:25:23;;;;;;;18.35;11.80;;;3.60;99.90;;;;;;5009795;28;20081;-67
2023/01/24 00:27:50;;;;;;;18.42;10.65;;;3.60;99.90;;;;;;5012222;28;20050;-66
2023/01/24 00:30:17;;;;;;;20.55;10.85;;;3.60;99.90;;;;;;5012091;28;20115;-67
2023/01/24 00:32:44;;;;;;;20.90;10.50;;;3.60;99.90;;;;;;5011158;28;20144;-66
2023/01/24 00:35:10;;;;;;;21.23;9.82;;;3.60;99.90;;;;;;5010065;28;20076;-67
2023/01/24 00:37:37;;;;;;;15.93;9.60;;;3.60;99.90;;;;;;5008937;28;20054;-66
2023/01/24 00:40:04;;;;;;;16.70;10.82;;;3.60;99.90;;;;;;5007512;28;20049;-66
2023/01/24 00:42:31;;;;;;;19.88;9.80;;;3.60;99.90;;;;;;5007482;28;20049;-66
2023/01/24 00:44:57;;;;;;;14.65;9.73;;;3.60;99.90;;;;;;5008045;28;20516;-66
2023/01/24 00:47:25;;;;;;;14.32;9.32;;;3.60;99.90;;;;;;5007338;28;20555;-66
2023/01/24 00:49:51;;;;;;;18.02;9.65;;;3.60;99.90;;;;;;5007740;28;20046;-66
2023/01/24 00:52:18;;;;;;;18.98;10.40;;;3.60;99.90;;;;;;5009079;28;20132;-66
2023/01/24 00:54:45;;;;;;;17.30;9.70;;;3.70;99.90;;;;;;5009259;28;20108;-66
2023/01/24 00:57:12;;;;;;;17.30;9.18;;;3.70;99.90;;;;;;5008425;28;20563;-66
2023/01/24 00:59:39;;;;;;;15.50;9.98;;;3.70;99.90;;;;;;5008551;28;20085;-65
2023/01/24 01:02:07;;;;;;;17.98;9.90;;;3.70;99.90;;;;;;5008782;28;20517;-66
2023/01/24 01:04:34;;;;;;;16.90;11.13;;;3.70;99.90;;;;;;4998454;28;20041;-66
2023/01/24 01:07:00;;;;;;;17.38;10.35;;;3.70;99.90;;;;;;5008575;28;20432;-65
2023/01/24 01:09:27;;;;;;;21.30;10.27;;;3.70;99.90;;;;;;5008776;28;20087;-66
2023/01/24 01:11:54;;;;;;;23.15;11.27;;;3.70;99.90;;;;;;5008499;28;20053;-65
2023/01/24 01:14:21;;;;;;;23.00;10.82;;;3.70;99.90;;;;;;5008413;28;20511;-65
2023/01/24 01:16:47;;;;;;;16.45;9.45;;;3.60;99.90;;;;;;5009129;28;20541;-66
2023/01/24 01:19:14;;;;;;;20.02;10.45;;;3.70;99.90;;;;;;5008678;28;20060;-66
2023/01/24 01:21:44;;;;;;;16.90;10.30;;;3.70;99.90;;;;;;5009008;28;20046;-66
2023/01/24 01:24:11;;;;;;;19.48;10.48;;;3.70;99.90;;;;;;5008405;28;20108;-66
2023/01/24 01:26:38;;;;;;;18.02;10.35;;;3.70;99.90;;;;;;5008637;28;20499;-66
2023/01/24 01:29:04;;;;;;;17.65;10.00;;;3.70;99.90;;;;;;5008473;28;20083;-65
2023/01/24 01:31:31;;;;;;;16.40;10.35;;;3.80;99.90;;;;;;5010292;28;20236;-65
2023/01/24 01:33:58;;;;;;;19.02;11.05;;;3.70;99.90;;;;;;5008403;28;20049;-65
2023/01/24 01:36:25;;;;;;;16.40;10.52;;;3.70;99.90;;;;;;5008487;28;20052;-65
2023/01/24 01:38:53;;;;;;;19.23;9.70;;;3.70;99.90;;;;;;5008382;28;20056;-66
2023/01/24 01:41:20;;;;;;;14.65;9.48;;;3.70;99.90;;;;;;5008427;28;20050;-65
2023/01/24 01:46:38;;;;;;;18.70;8.68;;;3.70;99.90;;;;;;5008818;28;20463;-67
2023/01/24 01:49:04;;;;;;;22.73;10.27;;;3.60;99.90;;;;;;5039678;28;20052;-65
2023/01/24 01:51:33;;;;;;;16.45;9.57;;;3.80;99.90;;;;;;5023451;28;20121;-65
2023/01/24 01:54:02;;;;;;;18.55;10.02;;;3.70;99.90;;;;;;5008611;28;20481;-65
2023/01/24 01:56:45;;;;;;;17.92;10.70;;;3.70;99.90;;;;;;5039138;28;20043;-66
2023/01/24 01:59:21;;;;;;;19.33;10.18;;;3.70;99.90;;;;;;5008046;28;20100;-65
2023/01/24 02:01:47;;;;;;;20.13;9.52;;;3.70;99.90;;;;;;5023583;28;20053;-66
2023/01/24 02:04:16;;;;;;;15.57;9.38;;;3.70;99.90;;;;;;5022992;28;20041;-65
2023/01/24 02:07:05;;;;;;;18.85;10.30;;;3.70;99.90;;;;;;5040317;28;20057;-66
2023/01/24 02:09:33;;;;;;;15.93;8.40;;;3.70;99.90;;;;;;4657358;28;10001335;-66
2023/01/24 02:12:03;;;;;;;20.15;10.63;;;3.70;99.90;;;;;;5006675;28;20340;-66
2023/01/24 02:17:19;;;;;;;16.58;9.15;;;3.80;99.90;;;;;;5007216;28;20052;-65
2023/01/24 02:19:55;;;;;;;15.05;8.60;;;3.70;99.90;;;;;;5024006;28;20060;-66
2023/01/24 02:22:44;;;;;;;17.17;9.35;;;3.80;99.90;;;;;;5011888;28;20133;-66
2023/01/24 02:25:37;;;;;;;13.45;8.30;;;3.80;99.90;;;;;;5013652;28;20418;-66
2023/01/24 02:28:03;;;;;;;17.70;9.55;;;3.80;99.90;;;;;;5036998;28;20046;-66
2023/01/24 02:30:30;;;;;;;18.40;9.80;;;3.90;99.90;;;;;;5042426;28;20056;-66
2023/01/24 02:32:57;;;;;;;14.93;8.80;;;3.90;99.90;;;;;;5011674;28;20045;-65
2023/01/24 02:35:31;;;;;;;20.55;10.38;;;3.80;99.90;;;;;;5011291;28;20049;-65
2023/01/24 02:37:58;;;;;;;15.30;9.13;;;3.80;99.90;;;;;;5011831;28;20154;-66
2023/01/24 02:40:27;;;;;;;14.82;9.10;;;4.00;99.90;;;;;;5011449;28;20060;-67
2023/01/24 02:42:54;;;;;;;15.45;8.82;;;4.40;99.90;;;;;;5043227;28;20048;-66
2023/01/24 02:45:26;;;;;;;15.73;9.23;;;3.90;99.90;;;;;;5026130;28;20046;-67
2023/01/24 02:47:54;;;;;;;12.45;8.40;;;3.90;99.90;;;;;;5011457;28;20133;-67
2023/01/24 02:50:22;;;;;;;14.18;8.38;;;3.90;99.90;;;;;;5011375;28;20053;-67
2023/01/24 02:58:05;;;;;;;15.75;9.27;;;3.90;99.90;;;;;;5011247;28;20050;-66
2023/01/24 02:58:21;;;;;;;16.58;8.25;;;3.90;99.90;;;;;;5000903;28;20046;-65
2023/01/24 03:00:48;;;;;;;20.17;9.88;;;4.00;99.90;;;;;;5010504;28;20560;-65
2023/01/24 03:03:15;;;;;;;13.57;9.23;;;4.00;99.90;;;;;;5011459;28;20099;-65
2023/01/24 03:05:57;;;;;;;17.38;10.10;;;4.00;99.90;;;;;;5042748;28;20048;-66
2023/01/24 03:08:25;;;;;;;16.58;8.68;;;4.00;99.90;;;;;;5010410;28;20050;-65
2023/01/24 03:10:52;;;;;;;16.08;10.13;;;4.00;99.90;;;;;;5010709;28;20073;-66
2023/01/24 03:35:23;;;;;;;20.23;9.43;;;4.00;99.90;;;;;;5010807;28;20132;-65
2023/01/24 03:40:35;;;;;;;17.90;10.30;;;4.00;99.90;;;;;;5011016;28;20068;-67
2023/01/24 03:43:02;;;;;;;13.07;8.70;;;4.00;99.90;;;;;;5010256;28;20046;-65
2023/01/24 03:45:31;;;;;;;16.92;9.85;;;4.00;99.90;;;;;;5025511;28;20505;-66
2023/01/24 03:47:59;;;;;;;17.98;9.27;;;4.00;99.90;;;;;;5010118;28;20042;-66
2023/01/24 03:53:19;;;;;;;16.88;10.02;;;4.00;99.90;;;;;;5010051;28;20042;-66
2023/01/24 03:55:46;;;;;;;15.35;10.15;;;4.00;99.90;;;;;;5010092;28;20136;-65
2023/01/24 03:58:13;;;;;;;18.80;11.15;;;3.90;99.90;;;;;;5008669;28;20125;-65
2023/01/24 04:00:40;;;;;;;16.75;9.57;;;3.90;99.90;;;;;;5014425;28;20057;-66
2023/01/24 04:03:07;;;;;;;14.68;9.88;;;3.90;99.90;;;;;;5009801;28;20038;-65
2023/01/24 04:05:34;;;;;;;17.10;11.20;;;3.90;99.90;;;;;;5009837;28;20046;-66
2023/01/24 04:08:01;;;;;;;21.48;11.52;;;3.90;99.90;;;;;;5009880;28;20401;-65
2023/01/24 04:10:28;;;;;;;16.63;11.05;;;3.90;99.90;;;;;;5025291;28;20120;-65
2023/01/24 04:12:55;;;;;;;23.10;12.23;;;3.90;99.90;;;;;;5009735;28;20731;-65
2023/01/24 04:15:24;;;;;;;17.70;10.60;;;3.90;99.90;;;;;;5009806;28;20045;-66
2023/01/24 04:17:51;;;;;;;20.25;11.35;;;4.00;99.90;;;;;;5024942;28;20133;-65
2023/01/24 04:20:18;;;;;;;17.83;11.48;;;3.90;99.90;;;;;;5041227;28;20052;-65
2023/01/24 04:22:44;;;;;;;20.15;12.05;;;4.10;99.90;;;;;;5009934;28;20425;-66
2023/01/24 04:25:11;;;;;;;19.80;12.10;;;3.90;99.90;;;;;;5009193;28;20125;-65
2023/01/24 04:27:38;;;;;;;20.85;12.07;;;3.90;99.90;;;;;;5009898;28;20125;-66
2023/01/24 04:30:09;;;;;;;18.00;10.93;;;4.00;99.90;;;;;;5008916;28;20522;-65
2023/01/24 04:32:35;;;;;;;18.95;11.63;;;3.90;99.90;;;;;;5009136;28;20128;-66
2023/01/24 04:35:03;;;;;;;17.13;11.23;;;3.90;99.90;;;;;;5009320;28;20054;-66
2023/01/24 04:37:30;;;;;;;18.63;11.52;;;3.90;99.90;;;;;;5009785;28;20046;-67
2023/01/24 04:39:57;;;;;;;18.42;11.57;;;4.00;99.90;;;;;;5009407;28;20056;-67
2023/01/24 04:42:24;;;;;;;24.52;12.75;;;4.00;99.90;;;;;;5040783;28;20054;-66
2023/01/24 04:44:51;;;;;;;19.77;12.50;;;4.00;99.90;;;;;;5009440;28;20057;-67
2023/01/24 04:47:18;;;;;;;19.10;12.70;;;4.00;99.90;;;;;;5009699;28;20103;-67
2023/01/24 04:49:44;;;;;;;23.05;13.32;;;4.00;99.90;;;;;;5024291;28;20050;-64
2023/01/24 04:52:11;;;;;;;34.13;14.27;;;4.00;99.90;;;;;;5009900;28;20157;-65
2023/01/24 04:54:41;;;;;;;20.45;12.63;;;4.00;99.90;;;;;;5023951;28;20540;-66
2023/01/24 04:57:10;;;;;;;23.25;11.85;;;4.00;99.90;;;;;;5010205;28;20046;-66
2023/01/24 04:59:37;;;;;;;20.17;13.25;;;4.00;99.90;;;;;;5027006;28;20056;-66
2023/01/24 05:02:04;;;;;;;21.83;13.15;;;4.00;99.90;;;;;;5011430;28;20121;-66
2023/01/24 05:04:31;;;;;;;20.80;12.80;;;4.00;99.90;;;;;;5011740;28;20061;-66
2023/01/24 05:06:57;;;;;;;23.05;12.82;;;4.00;99.90;;;;;;5011436;28;20120;-66
2023/01/24 05:09:24;;;;;;;23.27;13.65;;;4.00;99.90;;;;;;5010564;28;20071;-66
2023/01/24 05:11:51;;;;;;;21.70;12.30;;;4.00;99.90;;;;;;5008882;28;20081;-66
2023/01/24 05:14:18;;;;;;;19.33;12.25;;;4.00;99.90;;;;;;5009205;28;20129;-66
2023/01/24 05:16:45;;;;;;;20.63;13.95;;;4.00;99.90;;;;;;5008940;28;20050;-65
2023/01/24 05:19:11;;;;;;;23.92;14.90;;;4.00;99.90;;;;;;5009068;28;20045;-65
2023/01/24 05:21:38;;;;;;;20.05;12.48;;;4.00;99.90;;;;;;5008644;28;20057;-66
2023/01/24 05:24:05;;;;;;;24.23;13.60;;;4.00;99.90;;;;;;5008006;28;20069;-66
2023/01/24 05:26:32;;;;;;;21.60;13.25;;;4.00;99.90;;;;;;5007829;28;20128;-66
2023/01/24 05:28:59;;;;;;;20.30;12.68;;;4.00;99.90;;;;;;5008372;28;20482;-66
2023/01/24 05:31:26;;;;;;;20.92;12.13;;;4.00;99.90;;;;;;5008450;28;20141;-66
2023/01/24 05:33:53;;;;;;;20.13;13.68;;;4.00;99.90;;;;;;5008693;28;20046;-66
2023/01/24 05:36:21;;;;;;;19.75;12.75;;;4.00;99.90;;;;;;5023705;28;20053;-66
2023/01/24 05:38:48;;;;;;;25.95;13.32;;;4.00;99.90;;;;;;5008345;28;20049;-66
2023/01/24 05:41:16;;;;;;;20.52;13.48;;;4.10;99.90;;;;;;5008314;28;20053;-66
2023/01/24 05:43:43;;;;;;;20.85;12.25;;;4.10;99.90;;;;;;5008605;28;20085;-66
2023/01/24 05:46:12;;;;;;;23.58;12.05;;;4.10;99.90;;;;;;5008186;28;20046;-66
2023/01/24 05:48:38;;;;;;;22.38;12.52;;;4.10;99.90;;;;;;5008745;28;20085;-66
2023/01/24 05:51:07;;;;;;;19.30;13.13;;;4.00;99.90;;;;;;5016306;28;20137;-66
2023/01/24 05:53:35;;;;;;;20.75;12.40;;;4.00;99.90;;;;;;5007754;28;20049;-65
2023/01/24 05:56:05;;;;;;;20.63;13.80;;;4.00;99.90;;;;;;5012460;28;20443;-66
2023/01/24 05:58:36;;;;;;;21.92;11.73;;;4.00;99.90;;;;;;5011698;28;20077;-66
2023/01/24 06:01:07;;;;;;;20.05;13.27;;;4.00;99.90;;;;;;5004808;28;20050;-66
2023/01/24 06:03:36;;;;;;;20.80;13.50;;;4.00;99.90;;;;;;5011729;28;20053;-66
2023/01/24 06:06:03;;;;;;;24.35;13.65;;;4.00;99.90;;;;;;5012068;28;20056;-66
2023/01/24 06:08:29;;;;;;;18.52;12.23;;;4.00;99.90;;;;;;5011874;28;20421;-66
2023/01/24 06:11:02;;;;;;;18.23;12.25;;;4.00;99.90;;;;;;5012037;28;20092;-66
2023/01/24 06:13:29;;;;;;;19.88;11.88;;;4.00;99.90;;;;;;5011843;28;20133;-66
2023/01/24 06:16:07;;;;;;;17.13;11.30;;;4.00;99.90;;;;;;5011998;28;20132;-67
2023/01/24 06:18:34;;;;;;;17.35;11.80;;;4.00;99.90;;;;;;5011223;28;20512;-66
2023/01/24 06:21:45;;;;;;;19.95;12.85;;;4.00;99.90;;;;;;5011980;28;20556;-66
2023/01/24 06:24:26;;;;;;;17.33;12.05;;;4.00;99.90;;;;;;5011710;28;20133;-67
2023/01/24 06:26:53;;;;;;;19.02;12.57;;;4.00;99.90;;;;;;5011664;28;20050;-66
2023/01/24 06:29:21;;;;;;;19.98;12.82;;;4.00;99.90;;;;;;5011179;28;20465;-65
2023/01/24 06:31:47;;;;;;;31.25;13.25;;;4.00;99.90;;;;;;5011105;28;20421;-66
2023/01/24 06:34:48;;;;;;;25.15;14.40;;;4.10;99.90;;;;;;5026643;28;20084;-66
2023/01/24 06:37:32;;;;;;;20.88;12.80;;;4.00;99.90;;;;;;5020344;28;20050;-66
2023/01/24 06:39:59;;;;;;;19.15;13.15;;;4.10;99.90;;;;;;5011304;28;20056;-66
2023/01/24 06:42:26;;;;;;;19.27;12.35;;;4.10;99.90;;;;;;5011109;28;20088;-68
2023/01/24 06:44:53;;;;;;;19.35;11.32;;;4.00;99.90;;;;;;5026092;28;20065;-67
2023/01/24 06:47:20;;;;;;;18.27;12.80;;;4.00;99.90;;;;;;5011115;28;20077;-65
2023/01/24 06:49:47;;;;;;;28.17;12.50;;;4.00;99.90;;;;;;5009658;28;20217;-68
2023/01/24 06:52:13;;;;;;;17.48;12.65;;;4.00;99.90;;;;;;4691413;28;10000662;-68
2023/01/24 06:54:40;;;;;;;23.25;13.07;;;4.00;99.90;;;;;;5007808;28;20126;-67
2023/01/24 06:57:07;;;;;;;21.13;13.07;;;4.00;99.90;;;;;;5008501;28;20050;-67
2023/01/24 06:59:34;;;;;;;18.42;11.23;;;4.00;99.90;;;;;;5007332;28;20046;-66
2023/01/24 07:02:00;;;;;;;16.42;10.73;;;4.00;99.90;;;;;;5007428;28;20050;-67
2023/01/24 07:04:27;;;;;;;16.65;11.18;;;4.00;99.90;;;;;;5009220;28;20125;-67
2023/01/24 07:06:54;;;;;;;17.35;11.57;;;4.00;99.90;;;;;;5010254;28;20136;-67
2023/01/24 07:09:21;;;;;;;19.08;10.23;;;4.00;99.90;;;;;;5010230;28;20507;-68
2023/01/24 07:11:52;;;;;;;15.07;10.43;;;4.00;99.90;;;;;;5011044;28;20060;-68
2023/01/24 07:14:19;;;;;;;19.45;9.90;;;4.10;99.90;;;;;;5010749;28;20042;-67
2023/01/24 07:16:45;;;;;;;16.35;10.38;;;4.10;99.90;;;;;;5010391;28;20145;-66
2023/01/24 07:19:14;;;;;;;15.23;9.38;;;4.10;99.90;;;;;;5010389;28;20042;-68
2023/01/24 07:21:41;;;;;;;11.38;7.95;;;4.10;99.90;;;;;;5038809;28;20060;-68
2023/01/24 07:24:16;;;;;;;15.82;8.60;;;4.10;99.90;;;;;;5010254;28;20517;-69
2023/01/24 07:26:43;;;;;;;12.98;7.95;;;4.00;99.90;;;;;;5009319;28;20058;-68
2023/01/24 07:29:11;;;;;;;13.50;7.38;;;4.00;99.90;;;;;;5008862;28;20046;-67
2023/01/24 07:31:38;;;;;;;12.00;8.50;;;4.00;99.90;;;;;;5009505;28;20060;-69
2023/01/24 07:34:05;;;;;;;12.93;7.43;;;4.00;99.90;;;;;;5010399;28;20038;-69
2023/01/24 07:36:31;;;;;;;10.10;5.47;;;4.10;99.90;;;;;;5009382;28;20124;-67
2023/01/24 07:38:58;;;;;;;10.70;7.32;;;4.00;99.90;;;;;;5007317;28;20129;-68
2023/01/24 07:41:25;;;;;;;11.00;7.22;;;4.00;99.90;;;;;;5009248;28;20058;-67
2023/01/24 07:43:52;;;;;;;8.82;6.13;;;4.00;99.90;;;;;;5009432;28;20128;-68
2023/01/24 07:46:19;;;;;;;9.65;6.45;;;4.10;99.90;;;;;;5008721;28;20038;-69
2023/01/24 07:48:46;;;;;;;15.57;7.68;;;4.10;99.90;;;;;;5008716;28;20053;-67
2023/01/24 07:51:13;;;;;;;10.20;7.10;;;4.10;99.90;;;;;;5023281;28;20142;-68
2023/01/24 07:53:39;;;;;;;14.68;7.05;;;4.10;99.90;;;;;;5007948;28;20068;-68
2023/01/24 07:56:07;;;;;;;13.27;6.70;;;4.20;99.90;;;;;;5008951;28;20057;-69
2023/01/24 07:58:40;;;;;;;11.07;5.78;;;4.10;99.90;;;;;;5008608;28;20161;-69
2023/01/24 08:01:07;;;;;;;11.23;7.65;;;4.10;99.90;;;;;;5008254;28;20042;-69
2023/01/24 08:03:33;;;;;;;10.20;6.30;;;4.00;99.90;;;;;;5007873;28;20106;-69
2023/01/24 08:06:03;;;;;;;12.05;7.13;;;4.10;99.90;;;;;;5007794;28;20045;-66
2023/01/24 08:08:29;;;;;;;11.88;7.68;;;4.10;99.90;;;;;;5007637;28;20042;-67
2023/01/24 08:10:56;;;;;;;12.60;7.57;;;4.10;99.90;;;;;;5007820;28;20144;-66
2023/01/24 08:13:23;;;;;;;11.07;6.30;;;4.10;99.90;;;;;;5014287;28;20404;-67
2023/01/24 08:15:50;;;;;;;7.05;5.43;;;4.00;99.90;;;;;;4988157;28;20085;-67
2023/01/24 08:18:17;;;;;;;13.23;6.95;;;4.00;99.90;;;;;;5005700;28;20042;-66
2023/01/24 08:20:44;;;;;;;10.02;5.88;;;4.00;99.90;;;;;;5009086;28;20085;-66
2023/01/24 08:23:11;;;;;;;11.70;6.22;;;4.00;99.90;;;;;;5008289;28;20141;-66
2023/01/24 08:25:37;;;;;;;10.80;6.03;;;4.00;99.90;;;;;;5040252;28;20099;-66
2023/01/24 08:28:04;;;;;;;16.08;7.28;;;4.00;99.90;;;;;;5010165;28;20050;-67
2023/01/24 08:30:31;;;;;;;10.52;6.07;;;4.00;99.90;;;;;;5008869;28;20058;-68
2023/01/24 08:33:01;;;;;;;12.32;6.55;;;4.00;99.90;;;;;;5008810;28;20420;-67
2023/01/24 08:35:29;;;;;;;10.10;6.57;;;4.00;99.90;;;;;;5008345;28;20049;-67
2023/01/24 08:37:56;;;;;;;8.35;5.68;;;4.00;99.90;;;;;;5007947;28;20048;-67
2023/01/24 08:40:23;;;;;;;9.20;5.35;;;4.00;99.90;;;;;;5008235;28;20052;-67
2023/01/24 08:42:50;;;;;;;8.35;5.45;;;4.00;99.90;;;;;;5008274;28;20453;-67
2023/01/24 08:45:17;;;;;;;10.02;5.05;;;4.00;99.90;;;;;;5008690;28;20096;-67
2023/01/24 08:47:44;;;;;;;12.43;6.30;;;3.70;99.90;;;;;;5008118;28;20060;-68
2023/01/24 08:50:14;;;;;;;10.00;6.13;;;4.00;99.90;;;;;;5008057;28;20077;-67
2023/01/24 08:52:41;;;;;;;8.57;5.85;;;4.00;99.90;;;;;;5007856;28;20161;-68
2023/01/24 08:55:08;;;;;;;8.98;5.68;;;4.10;99.90;;;;;;5025555;28;20137;-67
2023/01/24 08:57:35;;;;;;;11.32;6.03;;;4.10;99.90;;;;;;4991098;28;20057;-67
2023/01/24 09:00:02;;;;;;;9.25;5.60;;;4.10;99.90;;;;;;5008024;28;20507;-67
2023/01/24 09:02:32;;;;;;;13.77;5.65;;;4.10;99.90;;;;;;5008073;28;20461;-67
2023/01/24 09:04:58;;;;;;;15.25;6.55;;;4.10;99.90;;;;;;5006489;28;20050;-66
2023/01/24 09:07:25;;;;;;;8.20;5.78;;;4.10;99.90;;;;;;5008221;28;20628;-68
2023/01/24 09:09:52;;;;;;;9.38;6.03;;;4.00;99.90;;;;;;5007650;28;20042;-68
2023/01/24 09:12:19;;;;;;;9.00;6.10;;;4.10;99.90;;;;;;5008816;28;20132;-68
2023/01/24 09:14:45;;;;;;;11.10;5.85;;;4.10;99.90;;;;;;5008152;28;20049;-68
2023/01/24 09:17:12;;;;;;;9.95;5.97;;;4.10;99.90;;;;;;5008495;28;20073;-66
2023/01/24 09:19:39;;;;;;;10.38;5.78;;;4.10;99.90;;;;;;5007828;28;20058;-68
2023/01/24 09:22:06;;;;;;;10.82;6.57;;;4.10;99.90;;;;;;5008423;28;20042;-67
2023/01/24 09:24:32;;;;;;;7.78;5.60;;;4.10;99.90;;;;;;5008808;28;20366;-67
2023/01/24 09:26:59;;;;;;;13.07;7.28;;;4.10;99.90;;;;;;5008939;28;20042;-66
2023/01/24 09:29:26;;;;;;;8.40;6.15;;;4.20;99.90;;;;;;5007634;28;20089;-67
2023/01/24 09:31:54;;;;;;;9.68;5.30;;;4.20;99.90;;;;;;5008540;28;20049;-67
2023/01/24 09:34:21;;;;;;;9.35;5.60;;;4.20;99.90;;;;;;5008680;28;20046;-68
2023/01/24 09:36:49;;;;;;;6.82;4.78;;;4.20;99.90;;;;;;5008706;28;20290;-67
2023/01/24 09:39:16;;;;;;;7.60;5.30;;;4.20;99.90;;;;;;5008783;28;20137;-68
2023/01/24 09:42:10;;;;;;;8.82;5.18;;;4.20;99.90;;;;;;5035742;28;20417;-68
2023/01/24 09:44:48;;;;;;;7.68;5.00;;;4.20;99.90;;;;;;5008487;28;20484;-67
2023/01/24 09:47:23;;;;;;;9.85;4.55;;;4.20;99.90;;;;;;5040919;28;20497;-66
2023/01/24 09:50:03;;;;;;;7.03;4.90;;;4.20;99.90;;;;;;5008974;28;20065;-66
2023/01/24 09:52:41;;;;;;;9.15;5.20;;;4.20;99.90;;;;;;5040837;28;20133;-66
2023/01/24 09:55:37;;;;;;;13.88;6.00;;;4.30;99.90;;;;;;5039953;28;20496;-66
2023/01/24 09:58:08;;;;;;;8.20;4.85;;;4.30;99.90;;;;;;5040577;28;20283;-67
2023/01/24 10:00:39;;;;;;;10.93;5.35;;;4.30;99.90;;;;;;5008433;28;20508;-67
2023/01/24 10:03:24;;;;;;;11.60;5.30;;;4.30;99.90;;;;;;5010105;28;20053;-67
2023/01/24 10:05:53;;;;;;;10.88;4.88;;;4.30;99.90;;;;;;5009395;28;20042;-66
2023/01/24 10:08:44;;;;;;;7.82;5.57;;;4.30;99.90;;;;;;5007692;28;20045;-66
2023/01/24 10:11:43;;;;;;;11.45;6.22;;;4.30;99.90;;;;;;5007651;28;20115;-67
2023/01/24 10:14:27;;;;;;;7.63;5.53;;;4.20;99.90;;;;;;5007070;28;20054;-71
2023/01/24 10:17:13;;;;;;;;;;;4.30;99.90;;;;;;5021678;28;20054;-67
2023/01/24 10:20:07;;;;;;;8.65;5.55;;;4.30;99.90;;;;;;5008355;28;19984;-67
2023/01/24 10:22:50;;;;;;;14.38;5.95;;;4.40;99.90;;;;;;5006459;28;20072;-66
2023/01/24 10:25:21;;;;;;;9.50;4.67;;;4.40;99.90;;;;;;5007690;28;20096;-68
2023/01/24 10:27:50;;;;;;;7.70;5.85;;;4.40;99.90;;;;;;5007394;28;20337;-66
2023/01/24 10:30:20;;;;;;;7.47;4.88;;;4.40;99.90;;;;;;5039164;28;20488;-66
2023/01/24 10:32:48;;;;;;;9.68;4.55;;;4.30;99.90;;;;;;5022669;28;20088;-67
2023/01/24 10:35:30;;;;;;;8.52;5.47;;;4.30;99.90;;;;;;5039661;28;20081;-68
2023/01/24 10:37:58;;;;;;;12.23;5.50;;;4.30;99.90;;;;;;5007149;28;20060;-67
2023/01/24 10:40:25;;;;;;;10.43;5.75;;;4.40;99.90;;;;;;5038880;28;20124;-68
2023/01/24 10:42:52;;;;;;;11.70;5.50;;;4.40;99.90;;;;;;5011085;28;20476;-66
2023/01/24 10:45:35;;;;;;;9.50;6.55;;;4.40;99.90;;;;;;5011345;28;20135;-67
2023/01/24 10:48:04;;;;;;;9.07;5.47;;;4.40;99.90;;;;;;5041679;28;20153;-67
2023/01/24 10:50:40;;;;;;;8.52;4.80;;;4.50;99.90;;;;;;5010415;28;20060;-67
2023/01/24 10:53:14;;;;;;;7.35;4.75;;;4.40;99.90;;;;;;5010921;28;20046;-68
2023/01/24 10:55:59;;;;;;;6.85;4.75;;;4.50;99.90;;;;;;5010922;28;20054;-66
2023/01/24 10:58:43;;;;;;;8.00;5.50;;;4.50;99.90;;;;;;5010504;28;20088;-67
2023/01/24 11:01:21;;;;;;;7.63;4.77;;;4.50;99.90;;;;;;5025263;28;20128;-67
2023/01/24 11:03:49;;;;;;;6.07;4.68;;;4.50;99.90;;;;;;5010506;28;20104;-67
2023/01/24 11:06:38;;;;;;;7.97;5.25;;;4.50;99.90;;;;;;5026029;28;20150;-66
2023/01/24 11:09:15;;;;;;;14.95;5.13;;;4.50;99.90;;;;;;5003088;28;20073;-66
2023/01/24 11:11:46;;;;;;;7.07;4.93;;;4.60;99.90;;;;;;4991234;28;20512;-66
2023/01/24 11:14:14;;;;;;;6.95;5.28;;;4.60;99.90;;;;;;5041924;28;20049;-66
2023/01/24 11:16:49;;;;;;;6.18;4.25;;;4.60;99.90;;;;;;5042320;28;20054;-67
2023/01/24 11:19:33;;;;;;;8.88;5.18;;;4.60;99.90;;;;;;5010374;28;20038;-67
2023/01/24 11:22:19;;;;;;;9.05;5.53;;;4.60;99.90;;;;;;5010797;28;20049;-67
2023/01/24 11:24:46;;;;;;;10.40;5.65;;;4.70;99.90;;;;;;5037836;28;20096;-67
2023/01/24 11:27:15;;;;;;;6.82;4.75;;;4.70;99.90;;;;;;5010560;28;20054;-68
2023/01/24 11:29:42;;;;;;;10.10;5.15;;;4.70;99.90;;;;;;5009569;28;20053;-63
2023/01/24 11:32:12;;;;;;;10.70;5.57;;;4.80;99.90;;;;;;5009478;28;20125;-67
2023/01/24 11:34:44;;;;;;;9.65;5.05;;;4.70;99.90;;;;;;5010346;28;20053;-67
2023/01/24 11:37:27;;;;;;;13.25;5.60;;;4.70;99.90;;;;;;5010373;28;20049;-67
2023/01/24 11:40:12;;;;;;;8.23;5.10;;;4.60;99.90;;;;;;5041487;28;20054;-67
2023/01/24 11:42:51;;;;;;;10.57;5.57;;;4.70;99.90;;;;;;5010150;28;20068;-67
2023/01/24 11:45:28;;;;;;;7.78;5.10;;;4.70;99.90;;;;;;5008991;28;20059;-67
2023/01/24 11:48:10;;;;;;;6.60;4.60;;;4.70;99.90;;;;;;5040845;28;20067;-68
2023/01/24 11:51:13;;;;;;;10.90;5.45;;;4.70;99.90;;;;;;5025224;28;20132;-67
2023/01/24 11:53:46;;;;;;;7.93;5.25;;;4.70;99.90;;;;;;5009785;28;20065;-66
2023/01/24 11:56:23;;;;;;;7.93;6.18;;;4.80;99.90;;;;;;5011550;28;20045;-66
2023/01/24 11:58:55;;;;;;;9.95;6.00;;;4.80;99.90;;;;;;5025112;28;20065;-66
2023/01/24 12:01:32;;;;;;;8.70;5.95;;;4.90;99.90;;;;;;5010043;28;20580;-67
2023/01/24 12:04:44;;;;;;;13.82;6.47;;;4.90;99.90;;;;;;5042743;28;20049;-67
2023/01/24 12:07:17;;;;;;;10.98;6.32;;;4.90;99.90;;;;;;4983906;28;20068;-67
2023/01/24 12:10:11;;;;;;;9.35;6.32;;;5.00;99.90;;;;;;5040857;28;20042;-67
2023/01/24 12:12:45;;;;;;;10.07;6.25;;;5.10;99.90;;;;;;5008765;28;20446;-67
2023/01/24 12:15:42;;;;;;;8.27;5.63;;;5.10;99.90;;;;;;5009602;28;20041;-67
2023/01/24 12:18:15;;;;;;;6.85;5.22;;;5.00;99.90;;;;;;5009561;28;20468;-66
2023/01/24 12:21:10;;;;;;;10.68;6.45;;;5.10;99.90;;;;;;5009357;28;20046;-67
2023/01/24 12:23:55;;;;;;;14.10;6.32;;;5.10;99.90;;;;;;4990193;28;20046;-67
2023/01/24 12:26:30;;;;;;;10.30;7.30;;;5.20;99.90;;;;;;5007720;28;20100;-67
2023/01/24 12:29:17;;;;;;;10.55;6.85;;;5.20;99.90;;;;;;5010090;28;20069;-68
2023/01/24 12:31:55;;;;;;;13.88;5.80;;;5.20;99.90;;;;;;5036944;28;20137;-67
2023/01/24 12:34:34;;;;;;;17.10;6.93;;;5.20;99.90;;;;;;5039498;28;20057;-66
2023/01/24 12:37:16;;;;;;;7.10;5.55;;;5.20;99.90;;;;;;5010791;28;20046;-67
2023/01/24 12:40:13;;;;;;;10.75;6.55;;;5.20;99.90;;;;;;5012290;28;20136;-67
2023/01/24 12:43:18;;;;;;;13.32;6.90;;;5.30;99.90;;;;;;5012528;28;20050;-67
2023/01/24 12:45:56;;;;;;;12.30;6.95;;;5.30;99.90;;;;;;5000343;28;20034;-67
2023/01/24 12:48:35;;;;;;;12.50;7.15;;;5.30;99.90;;;;;;5043188;28;20052;-68
2023/01/24 12:51:08;;;;;;;8.40;5.90;;;5.30;99.90;;;;;;5009277;28;20060;-67
2023/01/24 12:54:09;;;;;;;9.40;6.43;;;5.30;99.90;;;;;;5040309;28;20085;-67
2023/01/24 12:56:59;;;;;;;12.93;6.93;;;5.30;99.90;;;;;;5008754;28;20311;-67
2023/01/24 12:59:28;;;;;;;8.65;6.93;;;5.40;99.90;;;;;;5039012;28;20049;-66
2023/01/24 13:02:24;;;;;;;7.75;5.63;;;5.40;99.90;;;;;;5039630;28;20096;-66
2023/01/24 13:05:00;;;;;;;12.88;7.00;;;5.30;99.90;;;;;;5003667;28;20153;-67
2023/01/24 13:08:08;;;;;;;11.88;6.53;;;5.30;99.90;;;;;;5004430;28;20050;-66
2023/01/24 13:10:59;;;;;;;9.90;6.28;;;5.30;99.90;;;;;;5020669;28;20134;-67
2023/01/24 13:13:36;;;;;;;11.23;6.90;;;5.30;99.90;;;;;;5007415;28;20038;-65
2023/01/24 13:16:22;;;;;;;26.88;14.02;;;5.40;99.90;;;;;;5040158;28;20049;-65
2023/01/24 13:18:52;;;;;;;11.90;7.30;;;5.50;99.90;;;;;;5022555;28;20099;-67
2023/01/24 13:21:21;;;;;;;12.32;6.68;;;5.50;99.90;;;;;;5039888;28;20096;-67
2023/01/24 13:24:06;;;;;;;8.95;6.38;;;5.50;99.90;;;;;;5008648;28;20049;-66
2023/01/24 13:27:05;;;;;;;9.75;6.30;;;5.50;99.90;;;;;;5039176;28;20050;-67
2023/01/24 13:30:10;;;;;;;8.82;6.68;;;5.50;99.90;;;;;;5001963;28;20073;-68
2023/01/24 13:32:38;;;;;;;9.68;7.05;;;5.50;99.90;;;;;;5008400;28;20052;-67
2023/01/24 13:35:19;;;;;;;11.05;6.63;;;5.60;99.90;;;;;;5039866;28;20046;-66
2023/01/24 13:37:50;;;;;;;11.82;7.88;;;5.60;99.90;;;;;;5039820;28;20064;-67
2023/01/24 13:40:17;;;;;;;12.48;7.57;;;5.60;99.90;;;;;;5008843;28;20132;-66
2023/01/24 13:42:44;;;;;;;11.23;7.70;;;5.50;99.90;;;;;;5008359;28;20253;-68
2023/01/24 13:45:24;;;;;;;15.55;7.15;;;5.50;99.90;;;;;;5008697;28;20050;-67